Terminal Aerodrome Forecast
Issued by NWS

Home | Current Version | Previous Version | Text Only | Print | Product List | Glossary On
Versions: 1 2 3 4 5 6 7 8 9 10 11 12
307
FTUS42 KMLB 060539
TAFSUA
TAF
KSUA 060539Z 0606/0706 17005KT P6SM BKN150
     FM060800 17006KT P6SM FEW008 BKN150
     FM061500 19013G20KT P6SM FEW020 BKN040
     FM061800 21014G21KT P6SM SCT030 BKN050
     FM062100 23013KT P6SM BKN050
     FM070000 25006KT P6SM BKN040=

USA.gov is the U.S. government's official web portal to all federal, state and local government web resources and services.